Terminal Aerodrome Forecast
Issued by NWS Jackson, KY

Home | Current Version | Previous Version | Text Only | Print | Product List | Glossary On
Versions: 1 2 3 4 5 6 7 8 9 10 11 12 13 14 15 16
000
FTUS43 KJKL 270300 AAB
TAFJKL
TAF AMD
KJKL 270304Z 2703/2724 28003KT P6SM OVC020
     FM270500 30009KT P6SM VCSH OVC015
     FM271400 33003KT P6SM BKN025 BKN060
     FM271800 33003KT P6SM SCT025 BKN060=

USA.gov is the U.S. government's official web portal to all federal, state and local government web resources and services.